createdAt,value
2022-10-23T00:01:59.497Z,12.80
2022-10-23T00:04:29.427Z,11.33
2022-10-23T00:06:57.895Z,11.87
2022-10-23T00:09:26.475Z,15.43
2022-10-23T00:11:54.915Z,15.70
2022-10-23T00:14:25.435Z,19.93
2022-10-23T00:16:53.825Z,16.53
2022-10-23T00:19:22.195Z,17.83
2022-10-23T00:21:52.115Z,11.40
2022-10-23T00:24:20.561Z,11.60
2022-10-23T00:26:50.998Z,12.90
2022-10-23T00:29:19.189Z,20.10
2022-10-23T00:31:47.368Z,16.30
2022-10-23T00:34:15.608Z,15.33
2022-10-23T00:36:46.752Z,23.97
2022-10-23T00:39:16.339Z,14.10
2022-10-23T00:41:44.541Z,20.43
2022-10-23T00:44:51.367Z,20.27
2022-10-23T00:47:20.011Z,17.43
2022-10-23T00:49:48.202Z,21.60
2022-10-23T00:52:16.858Z,20.40
2022-10-23T00:54:46.769Z,17.87
2022-10-23T00:57:16.538Z,14.90
2022-10-23T00:59:44.862Z,13.70
2022-10-23T01:02:13.359Z,15.43
2022-10-23T01:04:41.779Z,13.10
2022-10-23T01:07:15.097Z,11.03
2022-10-23T01:09:51.302Z,14.27
2022-10-23T01:12:25.492Z,15.57
2022-10-23T01:15:04.147Z,12.63
2022-10-23T01:17:40.885Z,11.87
2022-10-23T01:20:21.848Z,12.13
2022-10-23T01:23:13.169Z,16.77
2022-10-23T01:25:58.962Z,11.63
2022-10-23T01:28:32.051Z,19.27
2022-10-23T01:31:02.585Z,14.17
2022-10-23T01:33:35.040Z,10.43
2022-10-23T01:36:05.508Z,17.10
2022-10-23T01:38:39.188Z,18.83
2022-10-23T01:41:12.199Z,15.53
2022-10-23T01:43:45.841Z,14.33
2022-10-23T01:46:16.781Z,21.40
2022-10-23T01:48:48.168Z,9.77
2022-10-23T01:51:17.172Z,18.77
2022-10-23T01:53:46.729Z,18.07
2022-10-23T01:56:23.638Z,18.80
2022-10-23T01:58:55.228Z,11.77
2022-10-23T02:01:26.089Z,11.80
2022-10-23T02:03:55.529Z,9.27
2022-10-23T02:06:23.778Z,11.87
2022-10-23T02:08:52.319Z,10.00
2022-10-23T02:11:22.608Z,8.83
2022-10-23T02:13:57.376Z,9.47
2022-10-23T02:16:30.787Z,12.70
2022-10-23T02:19:08.192Z,8.80
2022-10-23T02:21:42.869Z,13.20
2022-10-23T02:24:13.542Z,9.10
2022-10-23T02:26:44.052Z,9.27
2022-10-23T02:29:17.093Z,10.77
2022-10-23T02:31:45.361Z,9.33
2022-10-23T02:34:13.692Z,9.70
2022-10-23T02:36:42.559Z,13.07
2022-10-23T02:39:10.998Z,8.93
2022-10-23T02:41:43.119Z,9.13
2022-10-23T02:44:30.525Z,8.33
2022-10-23T02:47:10.823Z,9.43
2022-10-23T02:49:43.499Z,7.73
2022-10-23T02:52:16.552Z,7.13
2022-10-23T02:55:02.122Z,7.93
2022-10-23T02:57:34.249Z,8.40
2022-10-23T03:00:07.932Z,8.20
2022-10-23T03:02:39.777Z,8.90
2022-10-23T03:05:10.908Z,8.10
2022-10-23T03:07:40.914Z,8.43
2022-10-23T03:10:10.812Z,10.53
2022-10-23T03:12:39.337Z,17.07
2022-10-23T03:15:10.662Z,9.70
2022-10-23T03:17:38.869Z,8.93
2022-10-23T03:20:07.969Z,10.93
2022-10-23T03:22:36.297Z,9.53
2022-10-23T03:25:05.157Z,9.50
2022-10-23T03:27:33.534Z,9.27
2022-10-23T03:30:01.773Z,9.63
2022-10-23T03:32:31.819Z,10.73
2022-10-23T03:35:00.077Z,9.90
2022-10-23T03:37:28.338Z,9.47
2022-10-23T03:39:56.682Z,8.80
2022-10-23T03:42:24.947Z,11.00
2022-10-23T03:44:53.110Z,10.73
2022-10-23T03:47:21.342Z,10.80
2022-10-23T03:49:51.080Z,10.67
2022-10-23T03:52:19.582Z,33.33
2022-10-23T03:54:47.853Z,16.60
2022-10-23T03:57:16.049Z,15.67
2022-10-23T03:59:44.569Z,10.93
2022-10-23T04:02:12.824Z,18.23
2022-10-23T04:04:41.069Z,19.43
2022-10-23T04:07:10.832Z,18.13
2022-10-23T04:09:39.033Z,18.50
2022-10-23T04:12:08.029Z,17.97
2022-10-23T04:14:36.554Z,17.10
2022-10-23T04:17:04.801Z,18.87
2022-10-23T04:19:33.050Z,14.87
2022-10-23T04:22:01.308Z,17.70
2022-10-23T04:24:30.926Z,21.07
2022-10-23T04:26:59.226Z,10.90
2022-10-23T04:29:29.637Z,26.43
2022-10-23T04:31:57.808Z,26.67
2022-10-23T04:34:26.134Z,13.70
2022-10-23T04:36:54.378Z,25.00
2022-10-23T04:39:22.659Z,32.57
2022-10-23T04:41:52.299Z,16.63
2022-10-23T04:44:20.488Z,13.33
2022-10-23T04:46:48.658Z,20.03
2022-10-23T04:49:16.838Z,11.00
2022-10-23T04:51:45.117Z,23.13
2022-10-23T04:54:13.311Z,14.93
2022-10-23T04:56:41.828Z,12.93
2022-10-23T04:59:11.589Z,13.90
2022-10-23T05:01:39.905Z,12.60
2022-10-23T05:04:08.224Z,11.10
2022-10-23T05:06:36.379Z,11.40
2022-10-23T05:09:04.741Z,18.90
2022-10-23T05:11:32.922Z,13.37
2022-10-23T05:14:01.167Z,9.97
2022-10-23T05:16:37.162Z,13.00
2022-10-23T05:19:06.299Z,11.40
2022-10-23T05:21:36.419Z,10.53
2022-10-23T05:24:04.901Z,13.57
2022-10-23T05:26:33.865Z,10.33
2022-10-23T05:29:02.072Z,11.97
2022-10-23T05:31:32.423Z,13.27
2022-10-23T05:34:01.847Z,16.47
2022-10-23T05:36:30.749Z,12.70
2022-10-23T05:38:59.507Z,12.87
2022-10-23T05:41:27.810Z,13.10
2022-10-23T05:43:56.031Z,12.13
2022-10-23T05:46:24.397Z,11.37
2022-10-23T05:48:54.276Z,11.20
2022-10-23T05:51:23.603Z,14.03
2022-10-23T05:53:52.926Z,12.60
2022-10-23T05:56:21.034Z,10.97
2022-10-23T05:58:49.982Z,11.07
2022-10-23T06:01:18.633Z,11.70
2022-10-23T06:03:46.935Z,11.20
2022-10-23T06:06:16.523Z,11.73
2022-10-23T06:08:44.659Z,11.43
2022-10-23T06:11:14.500Z,10.97
2022-10-23T06:13:44.731Z,11.07
2022-10-23T06:16:13.839Z,11.23
2022-10-23T06:18:42.178Z,11.40
2022-10-23T06:21:10.659Z,10.53
2022-10-23T06:23:41.198Z,11.43
2022-10-23T06:26:12.624Z,12.87
2022-10-23T06:28:41.171Z,11.27
2022-10-23T06:31:11.090Z,14.17
2022-10-23T06:33:39.219Z,13.50
2022-10-23T06:36:10.448Z,13.77
2022-10-23T06:38:40.826Z,14.97
2022-10-23T06:41:12.371Z,18.53
2022-10-23T06:43:40.512Z,26.37
2022-10-23T06:46:08.779Z,24.03
2022-10-23T06:48:36.942Z,19.87
2022-10-23T06:51:07.842Z,18.50
2022-10-23T06:53:36.479Z,28.93
2022-10-23T06:56:07.842Z,29.17
2022-10-23T06:58:36.499Z,19.43
2022-10-23T07:01:06.503Z,52.40
2022-10-23T07:03:35.491Z,18.40
2022-10-23T07:06:04.075Z,35.53
2022-10-23T07:08:32.639Z,26.93
2022-10-23T07:11:06.431Z,15.03
2022-10-23T07:13:35.359Z,18.07
2022-10-23T07:16:11.513Z,28.87
2022-10-23T07:18:39.583Z,34.60
2022-10-23T07:21:07.768Z,16.90
2022-10-23T07:23:36.127Z,21.50
2022-10-23T07:26:07.499Z,30.37
2022-10-23T07:28:36.040Z,20.47
2022-10-23T07:31:04.712Z,32.50
2022-10-23T07:33:32.778Z,20.77
2022-10-23T07:36:00.909Z,31.33
2022-10-23T07:38:29.077Z,19.87
2022-10-23T07:40:59.399Z,28.27
2022-10-23T07:43:29.000Z,16.37
2022-10-23T07:45:57.066Z,18.67
2022-10-23T07:48:27.338Z,17.77
2022-10-23T07:51:01.423Z,17.17
2022-10-23T07:53:30.283Z,13.37
2022-10-23T07:55:59.978Z,12.73
2022-10-23T07:58:30.999Z,13.20
2022-10-23T08:01:00.397Z,12.37
2022-10-23T08:03:29.360Z,12.60
2022-10-23T08:05:58.997Z,12.17
2022-10-23T08:08:28.144Z,12.47
2022-10-23T08:10:57.554Z,11.57
2022-10-23T08:13:25.707Z,11.93
2022-10-23T08:15:56.098Z,12.23
2022-10-23T08:18:24.197Z,12.17
2022-10-23T08:20:53.052Z,10.97
2022-10-23T08:23:21.602Z,11.63
2022-10-23T08:25:49.698Z,10.27
2022-10-23T08:28:17.812Z,10.87
2022-10-23T08:30:45.929Z,11.43
2022-10-23T08:33:15.441Z,10.03
2022-10-23T08:35:43.519Z,10.30
2022-10-23T08:38:11.939Z,9.50
2022-10-23T08:40:40.072Z,9.00
2022-10-23T08:43:16.159Z,8.43
2022-10-23T08:45:46.679Z,8.13
2022-10-23T08:48:21.719Z,8.07
2022-10-23T08:50:53.719Z,7.13
2022-10-23T08:53:24.069Z,6.23
2022-10-23T08:55:56.939Z,7.13
2022-10-23T08:58:29.578Z,6.50
2022-10-23T09:00:58.216Z,6.43
2022-10-23T09:03:28.339Z,5.37
2022-10-23T09:06:09.560Z,5.40
2022-10-23T09:08:46.749Z,5.70
2022-10-23T09:11:20.020Z,5.63
2022-10-23T09:14:27.822Z,5.77
2022-10-23T09:17:04.152Z,8.60
2022-10-23T09:19:33.719Z,5.40
2022-10-23T09:22:02.061Z,6.27
2022-10-23T09:24:31.881Z,5.03
2022-10-23T09:27:01.022Z,5.63
2022-10-23T09:29:32.003Z,5.47
2022-10-23T09:32:01.710Z,6.50
2022-10-23T09:34:30.659Z,5.53
2022-10-23T09:37:01.155Z,4.80
2022-10-23T09:39:31.599Z,4.00
2022-10-23T09:42:02.534Z,5.77
2022-10-23T09:44:32.840Z,4.80
2022-10-23T09:47:02.098Z,4.80
2022-10-23T09:49:31.414Z,4.87
2022-10-23T09:52:06.379Z,5.03
2022-10-23T09:54:36.820Z,5.60
2022-10-23T09:57:08.146Z,6.30
2022-10-23T09:59:36.909Z,6.33
2022-10-23T10:02:05.310Z,11.17
2022-10-23T10:04:37.692Z,6.07
2022-10-23T10:07:19.530Z,6.10
2022-10-23T10:09:47.898Z,6.63
2022-10-23T10:12:38.858Z,6.77
2022-10-23T10:15:15.802Z,6.43
2022-10-23T10:17:49.318Z,7.07
2022-10-23T10:20:39.029Z,6.73
2022-10-23T10:23:15.724Z,6.70
2022-10-23T10:25:51.363Z,7.30
2022-10-23T10:28:33.373Z,7.77
2022-10-23T10:31:10.170Z,7.50
2022-10-23T10:33:41.998Z,6.90
2022-10-23T10:36:16.377Z,8.53
2022-10-23T10:38:49.252Z,7.53
2022-10-23T10:41:24.749Z,7.73
2022-10-23T10:44:02.129Z,7.00
2022-10-23T10:46:34.170Z,9.20
2022-10-23T10:49:04.619Z,14.20
2022-10-23T10:51:40.358Z,7.80
2022-10-23T10:54:20.574Z,7.50
2022-10-23T10:56:49.492Z,6.97
2022-10-23T10:59:22.158Z,7.47
2022-10-23T11:01:54.881Z,6.60
2022-10-23T11:04:30.649Z,6.70
2022-10-23T11:06:59.039Z,7.63
2022-10-23T11:09:29.498Z,7.43
2022-10-23T11:11:57.788Z,12.23
2022-10-23T11:14:27.661Z,6.83
2022-10-23T11:16:59.259Z,7.03
2022-10-23T11:19:30.449Z,6.67
2022-10-23T11:22:01.118Z,6.70
2022-10-23T11:24:55.821Z,7.07
2022-10-23T11:28:04.485Z,7.27
2022-10-23T11:30:37.568Z,7.60
2022-10-23T11:33:44.774Z,9.17
2022-10-23T11:36:15.724Z,16.10
2022-10-23T11:38:45.409Z,7.87
2022-10-23T11:41:25.539Z,6.60
2022-10-23T11:43:57.225Z,6.90
2022-10-23T11:46:32.892Z,7.10
2022-10-23T11:49:03.277Z,7.13
2022-10-23T11:51:33.520Z,6.77
2022-10-23T11:54:27.424Z,6.73
2022-10-23T11:57:10.110Z,6.20
2022-10-23T11:59:51.670Z,6.33
2022-10-23T12:02:27.792Z,6.67
2022-10-23T12:04:56.612Z,6.70
2022-10-23T12:07:27.108Z,5.87
2022-10-23T12:09:58.189Z,6.13
2022-10-23T12:12:34.159Z,7.43
2022-10-23T12:15:24.099Z,8.10
2022-10-23T12:17:54.268Z,6.20
2022-10-23T12:20:38.050Z,6.40
2022-10-23T12:23:38.432Z,6.27
2022-10-23T12:26:22.280Z,5.23
2022-10-23T12:28:58.828Z,5.10
2022-10-23T12:31:37.593Z,5.80
2022-10-23T12:34:12.269Z,5.90
2022-10-23T12:36:56.789Z,5.63
2022-10-23T12:39:29.689Z,5.07
2022-10-23T12:41:58.098Z,5.93
2022-10-23T12:44:28.138Z,6.50
2022-10-23T12:46:58.829Z,12.37
2022-10-23T12:49:28.679Z,5.67
2022-10-23T12:51:57.819Z,4.13
2022-10-23T12:54:26.399Z,3.80
2022-10-23T12:56:54.847Z,4.53
2022-10-23T12:59:26.477Z,4.43
2022-10-23T13:01:56.786Z,4.50
2022-10-23T13:04:31.060Z,3.90
2022-10-23T13:07:00.569Z,4.60
2022-10-23T13:09:31.238Z,7.30
2022-10-23T13:12:00.786Z,4.87
2022-10-23T13:14:35.140Z,5.07
2022-10-23T13:17:07.387Z,5.50
2022-10-23T13:19:36.579Z,4.67
2022-10-23T13:22:06.359Z,4.60
2022-10-23T13:24:34.559Z,4.20
2022-10-23T13:27:03.274Z,4.20
2022-10-23T13:29:32.616Z,4.37
2022-10-23T13:32:12.924Z,5.07
2022-10-23T13:34:40.989Z,4.90
2022-10-23T13:37:25.299Z,5.40
2022-10-23T13:40:03.353Z,5.33
2022-10-23T13:42:31.480Z,4.57
2022-10-23T13:45:00.380Z,5.33
2022-10-23T13:47:30.019Z,6.77
2022-10-23T13:49:58.099Z,5.30
2022-10-23T13:52:26.160Z,4.77
2022-10-23T13:54:54.307Z,5.87
2022-10-23T13:57:22.389Z,5.07
2022-10-23T13:59:51.077Z,5.00
2022-10-23T14:02:21.299Z,4.43
2022-10-23T14:04:51.759Z,4.67
2022-10-23T14:07:19.900Z,4.30
2022-10-23T14:09:50.454Z,5.60
2022-10-23T14:12:18.945Z,5.60
2022-10-23T14:14:47.732Z,6.40
2022-10-23T14:17:15.919Z,4.63
2022-10-23T14:19:44.246Z,4.63
2022-10-23T14:22:13.802Z,4.37
2022-10-23T14:24:41.970Z,4.73
2022-10-23T14:27:10.039Z,4.90
2022-10-23T14:29:38.119Z,4.30
2022-10-23T14:32:06.751Z,4.97
2022-10-23T14:34:35.079Z,4.93
2022-10-23T14:37:08.594Z,4.53
2022-10-23T14:39:38.769Z,4.80
2022-10-23T14:42:06.949Z,4.47
2022-10-23T14:44:35.016Z,5.20
2022-10-23T14:47:03.299Z,4.70
2022-10-23T14:49:31.438Z,6.80
2022-10-23T14:51:59.622Z,5.07
2022-10-23T14:54:29.478Z,5.20
2022-10-23T14:56:58.959Z,5.00
2022-10-23T14:59:27.041Z,5.20
2022-10-23T15:01:55.173Z,5.00
2022-10-23T15:04:24.001Z,5.37
2022-10-23T15:06:52.341Z,5.40
2022-10-23T15:09:20.727Z,5.63
2022-10-23T15:11:49.071Z,4.30
2022-10-23T15:14:19.762Z,6.67
2022-10-23T15:16:48.560Z,5.53
2022-10-23T15:19:18.755Z,5.20
2022-10-23T15:21:47.919Z,5.20
2022-10-23T15:24:16.452Z,5.60
2022-10-23T15:26:44.650Z,10.57
2022-10-23T15:29:14.906Z,5.53
2022-10-23T15:31:50.530Z,4.90
2022-10-23T15:34:20.305Z,5.83
2022-10-23T15:36:48.900Z,4.70
2022-10-23T15:39:21.496Z,5.60
2022-10-23T15:41:52.272Z,4.60
2022-10-23T15:44:22.260Z,4.93
2022-10-23T15:46:52.558Z,5.77
2022-10-23T15:49:21.172Z,6.43
2022-10-23T15:51:49.339Z,4.90
2022-10-23T15:54:19.459Z,5.90
2022-10-23T15:56:48.639Z,6.23
2022-10-23T15:59:17.208Z,13.43
2022-10-23T16:01:45.415Z,10.13
2022-10-23T16:04:16.168Z,7.93
2022-10-23T16:06:44.845Z,7.67
2022-10-23T16:09:13.222Z,7.50
2022-10-23T16:11:42.892Z,10.33
2022-10-23T16:14:13.739Z,9.73
2022-10-23T16:16:41.979Z,8.27
2022-10-23T16:19:12.029Z,7.60
2022-10-23T16:21:41.852Z,7.87
2022-10-23T16:24:10.369Z,7.20
2022-10-23T16:26:39.354Z,7.20
2022-10-23T16:29:08.858Z,7.60
2022-10-23T16:31:37.689Z,12.53
2022-10-23T16:34:06.883Z,12.60
2022-10-23T16:36:35.367Z,11.20
2022-10-23T16:39:05.400Z,8.93
2022-10-23T16:41:33.780Z,9.80
2022-10-23T16:44:02.155Z,8.73
2022-10-23T16:46:30.881Z,8.47
2022-10-23T16:48:59.379Z,8.63
2022-10-23T16:51:28.279Z,9.53
2022-10-23T16:53:56.898Z,7.47
2022-10-23T16:56:29.429Z,7.80
2022-10-23T17:01:33.289Z,8.80
2022-10-23T17:04:01.716Z,9.87
2022-10-23T17:06:31.394Z,10.70
2022-10-23T17:09:00.122Z,10.67
2022-10-23T17:11:30.771Z,11.53
2022-10-23T17:14:00.343Z,11.40
2022-10-23T17:16:29.879Z,11.23
2022-10-23T17:18:58.208Z,11.17
2022-10-23T17:21:26.398Z,11.17
2022-10-23T17:23:54.597Z,10.93
2022-10-23T17:26:23.655Z,10.33
2022-10-23T17:28:53.361Z,10.23
2022-10-23T17:31:23.499Z,10.63
2022-10-23T17:33:53.510Z,8.67
2022-10-23T17:36:22.816Z,9.23
2022-10-23T17:38:51.118Z,9.10
2022-10-23T17:41:20.590Z,9.77
2022-10-23T17:43:48.859Z,9.43
2022-10-23T17:46:19.371Z,10.37
2022-10-23T17:48:47.744Z,10.10
2022-10-23T17:51:18.767Z,10.00
2022-10-23T17:53:49.271Z,9.40
2022-10-23T17:56:20.179Z,9.80
2022-10-23T17:58:49.509Z,9.57
2022-10-23T18:01:21.196Z,9.63
2022-10-23T18:03:49.459Z,9.40
2022-10-23T18:06:19.268Z,11.03
2022-10-23T18:08:48.101Z,13.37
2022-10-23T18:11:17.047Z,18.63
2022-10-23T18:13:45.532Z,14.50
2022-10-23T18:16:15.328Z,13.70
2022-10-23T18:18:48.193Z,13.40
2022-10-23T18:21:17.654Z,11.67
2022-10-23T18:23:46.522Z,10.80
2022-10-23T18:26:17.160Z,11.70
2022-10-23T18:28:45.798Z,12.20
2022-10-23T18:31:15.179Z,10.80
2022-10-23T18:33:45.429Z,12.30
2022-10-23T18:36:15.119Z,10.23
2022-10-23T18:38:43.903Z,11.33
2022-10-23T18:41:12.159Z,11.03
2022-10-23T18:43:44.535Z,11.57
2022-10-23T18:46:13.269Z,11.40
2022-10-23T18:48:41.669Z,13.20
2022-10-23T18:51:16.277Z,10.97
2022-10-23T18:53:47.545Z,10.93
2022-10-23T18:56:16.429Z,10.80
2022-10-23T18:58:44.578Z,9.83
2022-10-23T19:01:12.752Z,9.33
2022-10-23T19:03:41.123Z,11.30
2022-10-23T19:06:09.468Z,17.87
2022-10-23T19:08:39.486Z,13.20
2022-10-23T19:11:08.913Z,12.47
2022-10-23T19:13:39.246Z,11.77
2022-10-23T19:16:10.405Z,11.53
2022-10-23T19:18:39.819Z,13.10
2022-10-23T19:21:08.311Z,11.33
2022-10-23T19:23:39.479Z,11.47
2022-10-23T19:26:09.125Z,8.97
2022-10-23T19:28:40.150Z,7.67
2022-10-23T19:31:10.031Z,6.03
2022-10-23T19:33:39.040Z,5.97
2022-10-23T19:36:12.651Z,5.73
2022-10-23T19:38:43.729Z,5.23
2022-10-23T19:41:11.991Z,4.07
2022-10-23T19:43:40.239Z,6.10
2022-10-23T19:46:11.266Z,4.73
2022-10-23T19:48:44.562Z,4.50
2022-10-23T19:51:13.659Z,7.77
2022-10-23T19:53:43.758Z,6.03
2022-10-23T19:56:13.328Z,3.93
2022-10-23T19:58:41.869Z,3.90
2022-10-23T20:01:12.024Z,3.67
2022-10-23T20:03:40.696Z,3.63
2022-10-23T20:06:12.424Z,3.77
2022-10-23T20:08:40.711Z,3.23
2022-10-23T20:11:12.865Z,2.80
2022-10-23T20:13:41.649Z,2.93
2022-10-23T20:16:09.719Z,5.43
2022-10-23T20:18:37.888Z,6.17
2022-10-23T20:21:06.049Z,2.87
2022-10-23T20:23:34.188Z,2.97
2022-10-23T20:26:06.778Z,4.60
2022-10-23T20:28:36.429Z,2.63
2022-10-23T20:31:08.509Z,2.67
2022-10-23T20:33:36.787Z,2.87
2022-10-23T20:36:05.483Z,2.50
2022-10-23T20:38:33.589Z,2.90
2022-10-23T20:41:05.755Z,3.10
2022-10-23T20:43:35.761Z,2.90
2022-10-23T20:46:07.939Z,2.93
2022-10-23T20:48:36.620Z,2.10
2022-10-23T20:51:05.378Z,8.80
2022-10-23T20:53:33.909Z,5.00
2022-10-23T20:56:01.979Z,2.90
2022-10-23T20:58:30.149Z,4.30
2022-10-23T21:01:03.971Z,2.63
2022-10-23T21:03:32.259Z,3.20
2022-10-23T21:06:05.008Z,3.20
2022-10-23T21:08:33.196Z,2.97
2022-10-23T21:11:01.448Z,3.33
2022-10-23T21:13:30.170Z,3.33
2022-10-23T21:15:59.829Z,3.23
2022-10-23T21:18:45.030Z,4.73
2022-10-23T21:21:14.991Z,3.30
2022-10-23T21:23:43.081Z,5.43
2022-10-23T21:26:11.189Z,11.73
2022-10-23T21:28:41.747Z,4.23
2022-10-23T21:31:20.971Z,5.20
2022-10-23T21:33:50.317Z,4.17
2022-10-23T21:36:19.998Z,3.80
2022-10-23T21:38:49.439Z,3.43
2022-10-23T21:41:20.937Z,3.43
2022-10-23T21:43:49.037Z,3.70
2022-10-23T21:46:20.359Z,4.63
2022-10-23T21:48:48.949Z,3.90
2022-10-23T21:51:22.779Z,4.30
2022-10-23T21:53:51.459Z,4.17
2022-10-23T21:56:28.879Z,3.67
2022-10-23T21:58:57.294Z,3.90
2022-10-23T22:01:27.236Z,3.90
2022-10-23T22:03:55.993Z,3.57
2022-10-23T22:06:27.247Z,3.80
2022-10-23T22:08:57.241Z,4.17
2022-10-23T22:11:25.379Z,4.77
2022-10-23T22:13:53.519Z,4.17
2022-10-23T22:16:21.660Z,4.23
2022-10-23T22:18:51.279Z,5.17
2022-10-23T22:21:21.643Z,5.87
2022-10-23T22:23:50.178Z,4.17
2022-10-23T22:26:22.077Z,4.20
2022-10-23T22:28:51.159Z,3.70
2022-10-23T22:31:20.639Z,4.10
2022-10-23T22:33:50.543Z,4.20
2022-10-23T22:36:18.999Z,3.97
2022-10-23T22:38:47.182Z,3.73
2022-10-23T22:41:16.200Z,4.20
2022-10-23T22:43:44.299Z,5.33
2022-10-23T22:46:13.690Z,4.30
2022-10-23T22:48:41.970Z,4.23
2022-10-23T22:51:13.039Z,3.93
2022-10-23T22:53:41.399Z,8.77
2022-10-23T22:56:11.119Z,19.53
2022-10-23T22:58:39.320Z,12.97
2022-10-23T23:01:11.332Z,6.97
2022-10-23T23:03:39.708Z,4.80
2022-10-23T23:06:08.938Z,3.97
2022-10-23T23:08:39.840Z,4.77
2022-10-23T23:11:09.499Z,5.43
2022-10-23T23:13:38.044Z,4.37
2022-10-23T23:16:07.119Z,3.93
2022-10-23T23:18:35.980Z,4.53
2022-10-23T23:21:04.667Z,5.30
2022-10-23T23:23:33.229Z,6.13
2022-10-23T23:26:06.092Z,9.27
2022-10-23T23:28:34.379Z,4.60
2022-10-23T23:31:07.039Z,4.10
2022-10-23T23:33:35.563Z,4.33
2022-10-23T23:36:08.209Z,4.40
2022-10-23T23:38:36.657Z,3.87
2022-10-23T23:41:07.619Z,10.73
2022-10-23T23:43:35.720Z,4.20
2022-10-23T23:46:03.840Z,4.80
2022-10-23T23:48:31.942Z,4.83
2022-10-23T23:51:00.231Z,6.13
2022-10-23T23:53:28.486Z,6.80
2022-10-23T23:55:56.771Z,4.83
2022-10-23T23:58:26.308Z,4.50
